Accueil
METAR-TAF:

METAR-TAF

Aéroports :

Searcy Municipal Airport

Searcy, Arkansas, États-Unis

latitude: 35-12-43N, longitude: 091-44-14W, altitude: 81 m

Observation

Le bulletin a été fait il y a 20 minutes, à 01:22 UTC
Vent 15 kt de nord avec des rafales jusqu'à 23 kt
Température 0°C
Humidité 86%
Pression 1028 hPa
Visibilité: 16.1 km
Quelques nuages à une hauteur de 2000 ft
Ciel couvert à une hauteur de 7500 ft

METAR: KSRC 120122Z AUTO 36015G23KT 10SM FEW020 OVC075 00/M02 A3036 RMK AO2 UPE07 P0000 FZRANO

Heure: 19:42 (01:42 UTC)


TAF: absent

Observations et prévisions météorologiques de plus de 4000 aéroports (messages METAR et TAF).

Les stations disponibles sont représentées par des disques jaunes et rouges sur la carte.

Passer la souris dessus pour voir le nom de la station.

Cliquer dessus pour voir les observations et prévisions météorologiques.

Pour changer de carte: cliquez sur les boutons verts avec une croix noire pour zoomer, sur le bouton vert avec un tiret pour effectuer un zoom arrière, ou sur les flèches vertes pour les cartes adjacentes.


METAR-TAF: